createdAt,value
2018-02-18T00:00:30.450Z,101071
2018-02-18T00:01:35.643Z,101068
2018-02-18T00:02:41.099Z,101077
2018-02-18T00:03:46.833Z,101071
2018-02-18T00:04:52.322Z,101079
2018-02-18T00:05:57.512Z,101077
2018-02-18T00:07:02.673Z,101074
2018-02-18T00:08:07.283Z,101065
2018-02-18T00:09:12.485Z,101071
2018-02-18T00:10:17.899Z,101074
2018-02-18T00:11:22.806Z,101074
2018-02-18T00:12:28.571Z,101082
2018-02-18T00:13:33.784Z,101077
2018-02-18T00:14:39.255Z,101079
2018-02-18T00:15:45.090Z,101088
2018-02-18T00:16:50.544Z,101077
2018-02-18T00:17:55.447Z,101077
2018-02-18T00:19:01.268Z,101079
2018-02-18T00:20:06.456Z,101094
2018-02-18T00:21:11.646Z,101091
2018-02-18T00:22:17.559Z,101088
2018-02-18T00:23:23.030Z,101088
2018-02-18T00:24:28.594Z,101085
2018-02-18T00:25:34.085Z,101094
2018-02-18T00:26:39.551Z,101102
2018-02-18T00:27:45.366Z,101088
2018-02-18T00:28:50.840Z,101082
2018-02-18T00:29:56.326Z,101094
2018-02-18T00:31:01.756Z,101091
2018-02-18T00:32:07.235Z,101102
2018-02-18T00:33:12.721Z,101091
2018-02-18T00:34:18.194Z,101102
2018-02-18T00:35:23.700Z,101091
2018-02-18T00:36:29.162Z,101088
2018-02-18T00:37:34.651Z,101082
2018-02-18T00:38:40.120Z,101099
2018-02-18T00:39:45.692Z,101091
2018-02-18T00:40:50.886Z,101091
2018-02-18T00:41:56.060Z,101102
2018-02-18T00:43:01.989Z,101102
2018-02-18T00:44:07.180Z,101094
2018-02-18T00:45:12.649Z,101102
2018-02-18T00:46:18.124Z,101094
2018-02-18T00:47:23.605Z,101091
2018-02-18T00:48:29.358Z,101113
2018-02-18T00:49:34.828Z,101105
2018-02-18T00:50:40.054Z,101105
2018-02-18T00:51:45.256Z,101099
2018-02-18T00:52:49.595Z,101105
2018-02-18T00:53:55.079Z,101113
2018-02-18T00:55:00.862Z,101113
2018-02-18T00:56:05.753Z,101108
2018-02-18T00:57:10.960Z,101108
2018-02-18T00:58:16.423Z,101108
2018-02-18T00:59:21.660Z,101119
2018-02-18T01:00:27.583Z,101116
2018-02-18T01:01:33.091Z,101108
2018-02-18T01:02:38.566Z,101119
2018-02-18T01:03:44.515Z,101110
2018-02-18T01:04:49.420Z,101116
2018-02-18T01:05:54.884Z,101116
2018-02-18T01:07:00.319Z,101119
2018-02-18T01:08:05.233Z,101113
2018-02-18T01:09:10.697Z,101122
2018-02-18T01:10:16.024Z,101113
2018-02-18T01:11:21.227Z,101122
2018-02-18T01:12:27.245Z,101119
2018-02-18T01:13:32.729Z,101113
2018-02-18T01:14:38.198Z,101119
2018-02-18T01:15:43.756Z,101119
2018-02-18T01:16:48.668Z,101119
2018-02-18T01:17:54.137Z,101119
2018-02-18T01:18:59.720Z,101113
2018-02-18T01:20:05.208Z,101119
2018-02-18T01:21:10.393Z,101122
2018-02-18T01:22:15.891Z,101125
2018-02-18T01:23:20.523Z,101128
2018-02-18T01:24:26.441Z,101125
2018-02-18T01:25:31.953Z,101125
2018-02-18T01:26:37.427Z,101125
2018-02-18T01:27:42.855Z,101125
2018-02-18T01:28:48.359Z,101113
2018-02-18T01:29:53.534Z,101119
2018-02-18T01:30:59.091Z,101128
2018-02-18T01:32:03.706Z,101116
2018-02-18T01:33:09.159Z,101125
2018-02-18T01:34:14.790Z,101113
2018-02-18T01:35:20.248Z,101119
2018-02-18T01:36:40.152Z,101125
2018-02-18T01:37:45.623Z,101108
2018-02-18T01:38:51.102Z,101113
2018-02-18T01:39:57.067Z,101108
2018-02-18T01:41:02.256Z,101119
2018-02-18T01:42:07.715Z,101116
2018-02-18T01:43:13.162Z,101108
2018-02-18T01:44:18.621Z,101113
2018-02-18T01:45:24.109Z,101125
2018-02-18T01:46:30.032Z,101122
2018-02-18T01:47:35.215Z,101110
2018-02-18T01:48:40.944Z,101110
2018-02-18T01:49:46.410Z,101119
2018-02-18T01:50:51.890Z,101125
2018-02-18T01:51:57.542Z,101116
2018-02-18T01:53:02.443Z,101113
2018-02-18T01:54:07.632Z,101128
2018-02-18T01:55:13.001Z,101122
2018-02-18T01:56:18.185Z,101122
2018-02-18T01:57:23.385Z,101131
2018-02-18T01:58:43.713Z,101131
2018-02-18T01:59:48.636Z,101128
2018-02-18T02:00:54.403Z,101134
2018-02-18T02:01:59.599Z,101119
2018-02-18T02:03:04.221Z,101119
2018-02-18T02:04:09.198Z,101128
2018-02-18T02:05:14.393Z,101122
2018-02-18T02:06:19.298Z,101119
2018-02-18T02:07:25.011Z,101131
2018-02-18T02:08:30.476Z,101125
2018-02-18T02:09:36.453Z,101137
2018-02-18T02:10:41.630Z,101122
2018-02-18T02:11:47.104Z,101134
2018-02-18T02:12:52.715Z,101134
2018-02-18T02:13:58.167Z,101134
2018-02-18T02:15:03.681Z,101140
2018-02-18T02:16:08.843Z,101131
2018-02-18T02:17:13.732Z,101142
2018-02-18T02:18:18.969Z,101125
2018-02-18T02:19:24.386Z,101131
2018-02-18T02:20:29.871Z,101131
2018-02-18T02:21:35.782Z,101137
2018-02-18T02:22:40.955Z,101125
2018-02-18T02:23:46.419Z,101131
2018-02-18T02:24:51.894Z,101122
2018-02-18T02:25:57.383Z,101128
2018-02-18T02:27:01.992Z,101128
2018-02-18T02:28:07.715Z,101137
2018-02-18T02:29:13.173Z,101142
2018-02-18T02:30:18.644Z,101131
2018-02-18T02:31:24.447Z,101134
2018-02-18T02:32:29.620Z,101131
2018-02-18T02:33:35.409Z,101136
2018-02-18T02:34:40.600Z,101122
2018-02-18T02:35:45.784Z,101134
2018-02-18T02:36:51.508Z,101122
2018-02-18T02:37:56.980Z,101131
2018-02-18T02:39:02.153Z,101134
2018-02-18T02:40:07.013Z,101125
2018-02-18T02:41:12.226Z,101116
2018-02-18T02:42:17.691Z,101125
2018-02-18T02:43:23.556Z,101125
2018-02-18T02:44:29.032Z,101128
2018-02-18T02:45:35.148Z,101131
2018-02-18T02:46:40.617Z,101122
2018-02-18T02:47:45.219Z,101125
2018-02-18T02:48:50.705Z,101125
2018-02-18T02:49:56.162Z,101125
2018-02-18T02:51:01.634Z,101139
2018-02-18T02:52:07.499Z,101125
2018-02-18T02:53:13.009Z,101122
2018-02-18T02:54:18.181Z,101125
2018-02-18T02:55:24.027Z,101125
2018-02-18T02:56:29.495Z,101122
2018-02-18T02:57:34.921Z,101122
2018-02-18T02:58:40.404Z,101116
2018-02-18T02:59:45.864Z,101128
2018-02-18T03:00:51.324Z,101128
2018-02-18T03:01:56.798Z,101125
2018-02-18T03:03:01.426Z,101131
2018-02-18T03:04:06.942Z,101125
2018-02-18T03:05:12.445Z,101125
2018-02-18T03:06:17.674Z,101125
2018-02-18T03:07:23.208Z,101116
2018-02-18T03:08:28.398Z,101122
2018-02-18T03:09:33.815Z,101119
2018-02-18T03:10:39.286Z,101125
2018-02-18T03:11:44.754Z,101119
2018-02-18T03:12:50.471Z,101122
2018-02-18T03:13:55.935Z,101110
2018-02-18T03:15:01.453Z,101113
2018-02-18T03:16:07.255Z,101119
2018-02-18T03:17:12.444Z,101122
2018-02-18T03:18:17.932Z,101119
2018-02-18T03:19:23.674Z,101119
2018-02-18T03:20:28.883Z,101119
2018-02-18T03:21:34.585Z,101125
2018-02-18T03:22:40.067Z,101125
2018-02-18T03:23:45.268Z,101116
2018-02-18T03:24:50.822Z,101119
2018-02-18T03:25:56.002Z,101116
2018-02-18T03:27:01.210Z,101119
2018-02-18T03:28:06.642Z,101116
2018-02-18T03:29:11.819Z,101122
2018-02-18T03:30:17.009Z,101113
2018-02-18T03:31:22.740Z,101107
2018-02-18T03:32:27.923Z,101110
2018-02-18T03:33:33.794Z,101116
2018-02-18T03:34:38.979Z,101110
2018-02-18T03:35:44.145Z,101122
2018-02-18T03:36:49.888Z,101110
2018-02-18T03:37:55.061Z,101116
2018-02-18T03:39:00.559Z,101119
2018-02-18T03:40:06.278Z,101107
2018-02-18T03:41:10.909Z,101116
2018-02-18T03:42:16.097Z,101113
2018-02-18T03:43:21.540Z,101122
2018-02-18T03:44:26.147Z,101113
2018-02-18T03:45:31.914Z,101116
2018-02-18T03:46:37.085Z,101113
2018-02-18T03:47:42.557Z,101119
2018-02-18T03:48:48.989Z,101102
2018-02-18T03:49:54.447Z,101110
2018-02-18T03:50:59.684Z,101119
2018-02-18T03:52:04.858Z,101102
2018-02-18T03:53:10.326Z,101116
2018-02-18T03:54:15.536Z,101116
2018-02-18T03:55:20.974Z,101122
2018-02-18T03:56:26.449Z,101113
2018-02-18T03:57:32.163Z,101125
2018-02-18T03:58:37.641Z,101128
2018-02-18T03:59:43.115Z,101119
2018-02-18T04:00:48.932Z,101128
2018-02-18T04:01:53.550Z,101128
2018-02-18T04:02:58.750Z,101139
2018-02-18T04:04:04.494Z,101131
2018-02-18T04:05:09.999Z,101125
2018-02-18T04:06:15.465Z,101134
2018-02-18T04:07:20.900Z,101125
2018-02-18T04:08:26.354Z,101119
2018-02-18T04:09:31.787Z,101134
2018-02-18T04:10:37.258Z,101119
2018-02-18T04:11:42.435Z,101128
2018-02-18T04:12:48.161Z,101119
2018-02-18T04:13:53.635Z,101113
2018-02-18T04:14:58.519Z,101113
2018-02-18T04:16:03.964Z,101128
2018-02-18T04:17:09.448Z,101122
2018-02-18T04:18:14.371Z,101125
2018-02-18T04:19:19.804Z,101125
2018-02-18T04:20:25.257Z,101119
2018-02-18T04:21:31.014Z,101116
2018-02-18T04:22:36.487Z,101128
2018-02-18T04:23:41.954Z,101125
2018-02-18T04:24:47.929Z,101128
2018-02-18T04:25:53.460Z,101119
2018-02-18T04:26:58.657Z,101131
2018-02-18T04:28:04.340Z,101131
2018-02-18T04:29:09.233Z,101122
2018-02-18T04:30:14.691Z,101122
2018-02-18T04:31:20.089Z,101136
2018-02-18T04:32:25.550Z,101125
2018-02-18T04:33:31.376Z,101134
2018-02-18T04:34:36.827Z,101136
2018-02-18T04:35:42.302Z,101136
2018-02-18T04:36:48.282Z,101134
2018-02-18T04:37:53.445Z,101125
2018-02-18T04:38:58.921Z,101131
2018-02-18T04:40:04.352Z,101136
2018-02-18T04:41:09.806Z,101128
2018-02-18T04:42:15.278Z,101125
2018-02-18T04:43:20.952Z,101136
2018-02-18T04:44:26.130Z,101139
2018-02-18T04:45:31.780Z,101131
2018-02-18T04:46:36.952Z,101131
2018-02-18T04:47:42.437Z,101136
2018-02-18T04:48:48.061Z,101139
2018-02-18T04:49:53.523Z,101139
2018-02-18T04:50:59.006Z,101134
2018-02-18T04:52:04.450Z,101128
2018-02-18T04:53:09.341Z,101131
2018-02-18T04:54:14.851Z,101131
2018-02-18T04:55:20.274Z,101136
2018-02-18T04:56:25.468Z,101128
2018-02-18T04:57:31.281Z,101131
2018-02-18T04:58:36.452Z,101125
2018-02-18T04:59:41.917Z,101134
2018-02-18T05:00:47.452Z,101128
2018-02-18T05:01:52.348Z,101131
2018-02-18T05:02:57.259Z,101128
2018-02-18T05:04:02.845Z,101125
2018-02-18T05:05:08.334Z,101128
2018-02-18T05:06:13.824Z,101131
2018-02-18T05:07:19.454Z,101128
2018-02-18T05:08:24.652Z,101122
2018-02-18T05:09:30.581Z,101139
2018-02-18T05:10:35.467Z,101122
2018-02-18T05:11:40.925Z,101122
2018-02-18T05:12:46.560Z,101131
2018-02-18T05:13:52.043Z,101134
2018-02-18T05:14:57.520Z,101125
2018-02-18T05:16:03.248Z,101128
2018-02-18T05:17:09.049Z,101125
2018-02-18T05:18:14.506Z,101134
2018-02-18T05:19:19.944Z,101134
2018-02-18T05:20:25.412Z,101136
2018-02-18T05:21:31.253Z,101131
2018-02-18T05:22:36.442Z,101113
2018-02-18T05:23:41.646Z,101122
2018-02-18T05:24:47.464Z,101125
2018-02-18T05:25:52.955Z,101122
2018-02-18T05:26:58.133Z,101122
2018-02-18T05:28:04.009Z,101131
2018-02-18T05:29:09.206Z,101128
2018-02-18T05:30:14.386Z,101128
2018-02-18T05:31:19.573Z,101139
2018-02-18T05:32:25.045Z,101131
2018-02-18T05:33:30.757Z,101125
2018-02-18T05:34:36.223Z,101134
2018-02-18T05:35:41.698Z,101139
2018-02-18T05:36:47.527Z,101134
2018-02-18T05:37:52.707Z,101142
2018-02-18T05:38:58.182Z,101139
2018-02-18T05:40:03.771Z,101145
2018-02-18T05:41:08.988Z,101148
2018-02-18T05:42:14.466Z,101139
2018-02-18T05:43:19.953Z,101148
2018-02-18T05:44:25.137Z,101148
2018-02-18T05:45:30.016Z,101148
2018-02-18T05:46:35.474Z,101142
2018-02-18T05:47:40.936Z,101145
2018-02-18T05:48:46.353Z,101151
2018-02-18T05:49:51.543Z,101151
2018-02-18T05:50:57.026Z,101142
2018-02-18T05:52:02.212Z,101154
2018-02-18T05:53:07.392Z,101145
2018-02-18T05:54:12.550Z,101139
2018-02-18T05:55:17.968Z,101136
2018-02-18T05:56:23.419Z,101145
2018-02-18T05:57:29.598Z,101148
2018-02-18T05:58:35.066Z,101148
2018-02-18T05:59:40.538Z,101133
2018-02-18T06:00:46.261Z,101145
2018-02-18T06:01:51.174Z,101148
2018-02-18T06:02:56.657Z,101133
2018-02-18T06:04:02.206Z,101154
2018-02-18T06:05:07.388Z,101145
2018-02-18T06:06:12.849Z,101142
2018-02-18T06:07:18.612Z,101142
2018-02-18T06:08:24.070Z,101136
2018-02-18T06:09:29.630Z,101136
2018-02-18T06:10:34.814Z,101139
2018-02-18T06:11:40.277Z,101145
2018-02-18T06:12:46.032Z,101136
2018-02-18T06:13:50.935Z,101133
2018-02-18T06:14:56.408Z,101128
2018-02-18T06:16:01.925Z,101136
2018-02-18T06:17:07.389Z,101136
2018-02-18T06:18:12.601Z,101128
2018-02-18T06:19:17.864Z,101131
2018-02-18T06:20:23.355Z,101131
2018-02-18T06:21:29.120Z,101131
2018-02-18T06:22:34.307Z,101134
2018-02-18T06:23:39.801Z,101136
2018-02-18T06:24:45.542Z,101131
2018-02-18T06:25:51.008Z,101134
2018-02-18T06:26:56.467Z,101119
2018-02-18T06:28:01.606Z,101128
2018-02-18T06:29:06.819Z,101131
2018-02-18T06:30:12.281Z,101139
2018-02-18T06:31:17.460Z,101133
2018-02-18T06:32:22.942Z,101128
2018-02-18T06:33:28.726Z,101128
2018-02-18T06:34:34.209Z,101139
2018-02-18T06:35:39.390Z,101128
2018-02-18T06:36:45.123Z,101128
2018-02-18T06:37:50.316Z,101133
2018-02-18T06:38:55.479Z,101131
2018-02-18T06:40:00.626Z,101136
2018-02-18T06:41:05.820Z,101131
2018-02-18T06:42:11.004Z,101125
2018-02-18T06:43:16.444Z,101125
2018-02-18T06:44:21.361Z,101122
2018-02-18T06:45:27.515Z,101128
2018-02-18T06:46:32.995Z,101131
2018-02-18T06:47:38.165Z,101125
2018-02-18T06:48:44.101Z,101122
2018-02-18T06:49:49.575Z,101131
2018-02-18T06:50:54.784Z,101131
2018-02-18T06:52:00.506Z,101131
2018-02-18T06:53:05.986Z,101139
2018-02-18T06:54:11.178Z,101128
2018-02-18T06:55:16.429Z,101125
2018-02-18T06:56:21.904Z,101131
2018-02-18T06:57:27.518Z,101131
2018-02-18T06:58:32.997Z,101131
2018-02-18T06:59:37.911Z,101139
2018-02-18T07:00:43.681Z,101145
2018-02-18T07:01:48.858Z,101131
2018-02-18T07:02:54.336Z,101142
2018-02-18T07:04:00.236Z,101128
2018-02-18T07:05:05.441Z,101131
2018-02-18T07:06:10.614Z,101128
2018-02-18T07:07:16.406Z,101125
2018-02-18T07:08:21.302Z,101128
2018-02-18T07:09:27.329Z,101125
2018-02-18T07:10:32.824Z,101134
2018-02-18T07:11:38.324Z,101125
2018-02-18T07:12:44.011Z,101128
2018-02-18T07:13:49.455Z,101131
2018-02-18T07:14:54.944Z,101125
2018-02-18T07:16:00.387Z,101119
2018-02-18T07:17:05.025Z,101125
2018-02-18T07:18:10.492Z,101125
2018-02-18T07:19:16.164Z,101128
2018-02-18T07:20:21.351Z,101116
2018-02-18T07:21:26.727Z,101134
2018-02-18T07:22:31.629Z,101125
2018-02-18T07:23:37.091Z,101122
2018-02-18T07:24:42.587Z,101122
2018-02-18T07:25:48.065Z,101122
2018-02-18T07:26:53.533Z,101122
2018-02-18T07:27:58.961Z,101119
2018-02-18T07:29:03.861Z,101122
2018-02-18T07:30:09.343Z,101131
2018-02-18T07:31:14.489Z,101131
2018-02-18T07:32:19.675Z,101134
2018-02-18T07:33:40.296Z,101136
2018-02-18T07:34:45.754Z,101131
2018-02-18T07:35:50.930Z,101125
2018-02-18T07:36:56.824Z,101131
2018-02-18T07:38:02.290Z,101136
2018-02-18T07:39:07.486Z,101134
2018-02-18T07:40:13.235Z,101131
2018-02-18T07:41:18.419Z,101128
2018-02-18T07:43:44.438Z,101139
2018-02-18T07:44:49.943Z,101145
2018-02-18T07:45:55.663Z,101137
2018-02-18T07:47:01.136Z,101131
2018-02-18T07:48:06.037Z,101136
2018-02-18T07:49:11.193Z,101139
2018-02-18T07:50:16.653Z,101142
2018-02-18T07:51:21.863Z,101151
2018-02-18T07:52:27.786Z,101139
2018-02-18T07:53:32.695Z,101142
2018-02-18T07:54:38.226Z,101142
2018-02-18T07:55:43.391Z,101142
2018-02-18T07:56:48.574Z,101145
2018-02-18T07:57:54.224Z,101142
2018-02-18T07:58:59.429Z,101145
2018-02-18T08:00:04.322Z,101137
2018-02-18T08:01:10.051Z,101142
2018-02-18T08:02:14.953Z,101139
2018-02-18T08:03:20.134Z,101157
2018-02-18T08:04:26.121Z,101154
2018-02-18T08:05:31.617Z,101145
2018-02-18T08:06:37.273Z,101151
2018-02-18T08:07:42.499Z,101148
2018-02-18T08:08:47.381Z,101137
2018-02-18T08:09:52.837Z,101137
2018-02-18T08:10:58.301Z,101137
2018-02-18T08:12:03.504Z,101134
2018-02-18T08:13:09.242Z,101151
2018-02-18T08:14:14.705Z,101128
2018-02-18T08:15:19.892Z,101143
2018-02-18T08:16:25.117Z,101143
2018-02-18T08:17:30.588Z,101142
2018-02-18T08:18:36.075Z,101142
2018-02-18T08:19:41.258Z,101140
2018-02-18T08:20:46.177Z,101137
2018-02-18T08:21:51.712Z,101145
2018-02-18T08:22:56.902Z,101154
2018-02-18T08:24:02.086Z,101151
2018-02-18T08:25:07.629Z,101148
2018-02-18T08:26:13.107Z,101148
2018-02-18T08:27:18.552Z,101154
2018-02-18T08:28:24.032Z,101148
2018-02-18T08:29:28.928Z,101140
2018-02-18T08:30:34.121Z,101157
2018-02-18T08:31:39.303Z,101142
2018-02-18T08:32:44.829Z,101145
2018-02-18T08:33:50.587Z,101148
2018-02-18T08:34:56.058Z,101148
2018-02-18T08:36:00.949Z,101142
2018-02-18T08:37:06.689Z,101148
2018-02-18T08:38:12.235Z,101151
2018-02-18T08:39:17.294Z,101137
2018-02-18T08:40:23.033Z,101145
2018-02-18T08:41:28.492Z,101148
2018-02-18T08:42:34.270Z,101148
2018-02-18T08:43:39.511Z,101131
2018-02-18T08:44:44.721Z,101143
2018-02-18T08:45:50.144Z,101137
2018-02-18T08:46:55.632Z,101137
2018-02-18T08:48:00.820Z,101137
2018-02-18T08:49:06.255Z,101143
2018-02-18T08:50:11.716Z,101140
2018-02-18T08:51:16.954Z,101137
2018-02-18T08:52:22.520Z,101137
2018-02-18T08:53:28.000Z,101143
2018-02-18T08:54:33.885Z,101143
2018-02-18T08:55:39.082Z,101137
2018-02-18T08:56:44.027Z,101137
2018-02-18T08:57:49.155Z,101131
2018-02-18T08:58:54.619Z,101137
2018-02-18T08:59:59.798Z,101128
2018-02-18T09:01:04.875Z,101131
2018-02-18T09:02:10.498Z,101143
2018-02-18T09:03:15.966Z,101134
2018-02-18T09:04:21.731Z,101131
2018-02-18T09:05:27.190Z,101131
2018-02-18T09:06:32.731Z,101134
2018-02-18T09:07:38.178Z,101137
2018-02-18T09:08:43.647Z,101131
2018-02-18T09:09:49.367Z,101137
2018-02-18T09:10:54.830Z,101146
2018-02-18T09:12:00.001Z,101134
2018-02-18T09:13:05.272Z,101140
2018-02-18T09:14:10.242Z,101148
2018-02-18T09:15:15.430Z,101143
2018-02-18T09:16:20.851Z,101140
2018-02-18T09:17:26.332Z,101143
2018-02-18T09:18:32.269Z,101148
2018-02-18T09:19:37.736Z,101140
2018-02-18T09:20:42.631Z,101140
2018-02-18T09:21:48.351Z,101143
2018-02-18T09:22:53.845Z,101146
2018-02-18T09:23:59.011Z,101131
2018-02-18T09:25:04.563Z,101143
2018-02-18T09:26:09.728Z,101146
2018-02-18T09:27:15.194Z,101143
2018-02-18T09:28:20.685Z,101134
2018-02-18T09:29:26.142Z,101148
2018-02-18T09:30:32.207Z,101143
2018-02-18T09:31:37.433Z,101146
2018-02-18T09:32:42.329Z,101149
2018-02-18T09:33:48.340Z,101151
2018-02-18T09:34:53.533Z,101154
2018-02-18T09:35:59.015Z,101154
2018-02-18T09:37:04.468Z,101143
2018-02-18T09:38:09.694Z,101154
2018-02-18T09:39:15.161Z,101149
2018-02-18T09:40:20.990Z,101151
2018-02-18T09:41:26.464Z,101146
2018-02-18T09:42:32.479Z,101151
2018-02-18T09:43:37.973Z,101154
2018-02-18T09:44:43.159Z,101154
2018-02-18T09:45:48.978Z,101154
2018-02-18T09:46:54.442Z,101154
2018-02-18T09:47:59.925Z,101154
2018-02-18T09:49:05.322Z,101149
2018-02-18T09:50:10.523Z,101146
2018-02-18T09:51:15.181Z,101154
2018-02-18T09:52:20.926Z,101146
2018-02-18T09:53:26.425Z,101154
2018-02-18T09:54:32.301Z,101149
2018-02-18T09:55:37.763Z,101152
2018-02-18T09:56:42.946Z,101157
2018-02-18T09:57:48.882Z,101163
2018-02-18T09:58:54.068Z,101154
2018-02-18T09:59:59.268Z,101152
2018-02-18T10:01:04.562Z,101154
2018-02-18T10:02:10.029Z,101149
2018-02-18T10:03:15.199Z,101152
2018-02-18T10:04:20.356Z,101160
2018-02-18T10:05:25.521Z,101155
2018-02-18T10:06:31.206Z,101160
2018-02-18T10:07:36.387Z,101157
2018-02-18T10:08:41.850Z,101157
2018-02-18T10:09:47.433Z,101160
2018-02-18T10:10:52.910Z,101163
2018-02-18T10:11:58.359Z,101160
2018-02-18T10:13:03.608Z,101168
2018-02-18T10:14:08.486Z,101160
2018-02-18T10:15:13.953Z,101163
2018-02-18T10:16:19.668Z,101152
2018-02-18T10:17:25.137Z,101157
2018-02-18T10:18:30.918Z,101157
2018-02-18T10:19:36.384Z,101157
2018-02-18T10:20:41.552Z,101157
2018-02-18T10:21:47.241Z,101157
2018-02-18T10:22:52.439Z,101158
2018-02-18T10:23:57.909Z,101152
2018-02-18T10:25:03.708Z,101163
2018-02-18T10:26:08.324Z,101160
2018-02-18T10:27:13.512Z,101149
2018-02-18T10:28:19.237Z,101158
2018-02-18T10:29:24.142Z,101158
2018-02-18T10:30:29.547Z,101158
2018-02-18T10:31:35.040Z,101149
2018-02-18T10:32:40.249Z,101152
2018-02-18T10:33:45.750Z,101155
2018-02-18T10:34:50.971Z,101155
2018-02-18T10:35:56.447Z,101158
2018-02-18T10:37:02.168Z,101158
2018-02-18T10:38:07.074Z,101155
2018-02-18T10:39:12.542Z,101158
2018-02-18T10:40:18.088Z,101152
2018-02-18T10:41:23.547Z,101161
2018-02-18T10:42:29.083Z,101152
2018-02-18T10:43:34.277Z,101158
2018-02-18T10:44:39.465Z,101163
2018-02-18T10:45:45.390Z,101161
2018-02-18T10:46:50.562Z,101152
2018-02-18T10:47:55.753Z,101155
2018-02-18T10:49:00.931Z,101158
2018-02-18T10:50:06.125Z,101152
2018-02-18T10:51:11.325Z,101161
2018-02-18T10:52:17.164Z,101161
2018-02-18T10:53:22.642Z,101152
2018-02-18T10:54:28.150Z,101155
2018-02-18T10:55:33.623Z,101161
2018-02-18T10:56:38.540Z,101155
2018-02-18T10:57:44.266Z,101163
2018-02-18T10:58:49.447Z,101149
2018-02-18T10:59:55.000Z,101163
2018-02-18T11:01:00.176Z,101155
2018-02-18T11:02:05.654Z,101155
2018-02-18T11:03:10.569Z,101158
2018-02-18T11:04:16.284Z,101165
2018-02-18T11:05:20.623Z,101164
2018-02-18T11:06:40.907Z,101164
2018-02-18T11:07:46.106Z,101149
2018-02-18T11:08:51.611Z,101158
2018-02-18T11:09:57.455Z,101158
2018-02-18T11:11:02.658Z,101155
2018-02-18T11:12:07.843Z,101164
2018-02-18T11:13:12.716Z,101149
2018-02-18T11:14:17.047Z,101152
2018-02-18T11:15:22.010Z,101155
2018-02-18T11:16:27.751Z,101149
2018-02-18T11:17:33.221Z,101149
2018-02-18T11:18:39.027Z,101155
2018-02-18T11:19:44.511Z,101140
2018-02-18T11:20:49.968Z,101146
2018-02-18T11:21:55.692Z,101146
2018-02-18T11:23:01.152Z,101149
2018-02-18T11:24:06.344Z,101143
2018-02-18T11:25:11.510Z,101143
2018-02-18T11:26:16.978Z,101137
2018-02-18T11:27:21.878Z,101138
2018-02-18T11:28:27.348Z,101123
2018-02-18T11:29:32.549Z,101135
2018-02-18T11:30:38.134Z,101132
2018-02-18T11:31:43.340Z,101138
2018-02-18T11:32:48.534Z,101129
2018-02-18T11:33:53.954Z,101132
2018-02-18T11:34:59.127Z,101123
2018-02-18T11:36:04.042Z,101123
2018-02-18T11:37:09.795Z,101132
2018-02-18T11:38:14.692Z,101135
2018-02-18T11:39:19.865Z,101138
2018-02-18T11:40:40.224Z,101129
2018-02-18T11:41:45.689Z,101126
2018-02-18T11:42:51.390Z,101129
2018-02-18T11:43:56.867Z,101129
2018-02-18T11:45:02.335Z,101135
2018-02-18T11:46:07.492Z,101132
2018-02-18T11:47:12.674Z,101120
2018-02-18T11:48:18.140Z,101120
2018-02-18T11:49:23.881Z,101126
2018-02-18T11:50:29.071Z,101123
2018-02-18T11:51:34.239Z,101135
2018-02-18T11:52:39.699Z,101123
2018-02-18T11:53:44.890Z,101132
2018-02-18T11:54:49.775Z,101120
2018-02-18T11:55:55.240Z,101120
2018-02-18T11:57:00.437Z,101120
2018-02-18T11:58:06.272Z,101117
2018-02-18T11:59:11.481Z,101114
2018-02-18T12:00:16.948Z,101114
2018-02-18T12:01:22.811Z,101111
2018-02-18T12:02:28.277Z,101120
2018-02-18T12:03:34.151Z,101109
2018-02-18T12:04:39.622Z,101120
2018-02-18T12:05:45.100Z,101114
2018-02-18T12:06:50.544Z,101114
2018-02-18T12:07:55.778Z,101114
2018-02-18T12:09:01.254Z,101100
2018-02-18T12:10:06.736Z,101111
2018-02-18T12:11:12.233Z,101109
2018-02-18T12:12:17.451Z,101103
2018-02-18T12:13:22.887Z,101109
2018-02-18T12:14:28.109Z,101103
2018-02-18T12:15:33.966Z,101106
2018-02-18T12:16:39.163Z,101114
2018-02-18T12:17:44.853Z,101103
2018-02-18T12:18:50.575Z,101095
2018-02-18T12:19:56.031Z,101103
2018-02-18T12:21:01.209Z,101106
2018-02-18T12:22:06.363Z,101103
2018-02-18T12:23:11.583Z,101100
2018-02-18T12:24:16.489Z,101095
2018-02-18T12:25:22.018Z,101100
2018-02-18T12:26:27.203Z,101092
2018-02-18T12:27:32.856Z,101092
2018-02-18T12:28:38.323Z,101083
2018-02-18T12:29:43.516Z,101089
2018-02-18T12:30:48.680Z,101078
2018-02-18T12:31:54.167Z,101081
2018-02-18T12:32:59.334Z,101075
2018-02-18T12:34:04.758Z,101072
2018-02-18T12:35:10.236Z,101081
2018-02-18T12:36:15.422Z,101083
2018-02-18T12:37:20.858Z,101078
2018-02-18T12:38:26.358Z,101072
2018-02-18T12:39:31.704Z,101072
2018-02-18T12:40:37.166Z,101066
2018-02-18T12:41:41.792Z,101066
2018-02-18T12:42:47.763Z,101066
2018-02-18T12:43:53.253Z,101057
2018-02-18T12:44:58.444Z,101060
2018-02-18T12:46:04.267Z,101060
2018-02-18T12:47:09.449Z,101060
2018-02-18T12:48:14.938Z,101066
2018-02-18T12:49:20.170Z,101063
2018-02-18T12:50:25.428Z,101066
2018-02-18T12:51:30.586Z,101060
2018-02-18T12:52:35.802Z,101051
2018-02-18T12:53:40.430Z,101060
2018-02-18T12:54:45.651Z,101060
2018-02-18T12:55:50.828Z,101052
2018-02-18T12:56:56.317Z,101057
2018-02-18T12:58:01.738Z,101052
2018-02-18T12:59:06.632Z,101054
2018-02-18T13:00:12.101Z,101043
2018-02-18T13:01:17.814Z,101057
2018-02-18T13:02:23.295Z,101052
2018-02-18T13:03:29.244Z,101052
2018-02-18T13:04:34.438Z,101052
2018-02-18T13:05:39.624Z,101046
2018-02-18T13:06:45.270Z,101049
2018-02-18T13:07:50.449Z,101054
2018-02-18T13:08:55.646Z,101043
2018-02-18T13:10:00.812Z,101040
2018-02-18T13:11:05.383Z,101043
2018-02-18T13:12:10.565Z,101043
2018-02-18T13:13:16.340Z,101037
2018-02-18T13:14:21.812Z,101040
2018-02-18T13:15:28.003Z,101054
2018-02-18T13:16:33.484Z,101034
2018-02-18T13:17:38.433Z,101040
2018-02-18T13:18:44.244Z,101043
2018-02-18T13:19:49.712Z,101034
2018-02-18T13:20:55.205Z,101046
2018-02-18T13:22:00.525Z,101037
2018-02-18T13:23:05.718Z,101034
2018-02-18T13:24:10.644Z,101031
2018-02-18T13:25:16.099Z,101028
2018-02-18T13:26:20.713Z,101037
2018-02-18T13:27:27.202Z,101034
2018-02-18T13:28:32.130Z,101049
2018-02-18T13:29:37.330Z,101028
2018-02-18T13:30:42.979Z,101043
2018-02-18T13:31:48.442Z,101040
2018-02-18T13:32:53.904Z,101043
2018-02-18T13:33:59.644Z,101023
2018-02-18T13:35:04.543Z,101037
2018-02-18T13:36:09.457Z,101031
2018-02-18T13:37:15.180Z,101025
2018-02-18T13:38:20.076Z,101028